createdAt,value
2023-01-19T00:00:53.112Z,100029.38
2023-01-19T00:03:19.761Z,100029.38
2023-01-19T00:05:46.462Z,100027.44
2023-01-19T00:08:16.780Z,100019.00
2023-01-19T00:10:48.427Z,100027.44
2023-01-19T00:13:15.762Z,100023.63
2023-01-19T00:15:42.517Z,100021.41
2023-01-19T00:18:10.887Z,100008.94
2023-01-19T00:20:41.426Z,100012.47
2023-01-19T00:23:08.939Z,100007.03
2023-01-19T00:25:42.317Z,100006.22
2023-01-19T00:28:12.266Z,100004.31
2023-01-19T00:30:40.054Z,100005.91
2023-01-19T00:33:06.787Z,100003.19
2023-01-19T00:35:35.115Z,100017.59
2023-01-19T00:38:02.930Z,100005.63
2023-01-19T00:40:29.639Z,100008.34
2023-01-19T00:42:56.312Z,100001.78
2023-01-19T00:45:24.413Z,100001.28
2023-01-19T00:47:56.870Z,100004.81
2023-01-19T00:50:25.036Z,100002.38
2023-01-19T00:52:53.896Z,100004.81
2023-01-19T00:55:21.086Z,100005.09
2023-01-19T00:57:47.769Z,100004.59
2023-01-19T01:00:22.062Z,100000.22
2023-01-19T01:02:50.541Z,99998.63
2023-01-19T01:05:18.174Z,100004.06
2023-01-19T01:07:45.299Z,99997.00
2023-01-19T01:10:15.276Z,100005.47
2023-01-19T01:12:56.177Z,99992.13
2023-01-19T01:15:27.750Z,99988.34
2023-01-19T01:17:54.789Z,99982.91
2023-01-19T01:20:25.314Z,99985.91
2023-01-19T01:22:53.757Z,99986.69
2023-01-19T01:25:23.757Z,99977.97
2023-01-19T01:27:51.193Z,99974.44
2023-01-19T01:30:18.528Z,99976.38
2023-01-19T01:32:45.216Z,99971.44
2023-01-19T01:35:12.643Z,99978.47
2023-01-19T01:37:39.797Z,99969.22
2023-01-19T01:40:07.408Z,99974.66
2023-01-19T01:42:34.755Z,99965.41
2023-01-19T01:45:06.204Z,99965.41
2023-01-19T01:47:36.480Z,99972.44
2023-01-19T01:50:25.365Z,99970.84
2023-01-19T01:53:07.699Z,99963.19
2023-01-19T01:55:37.317Z,99968.94
2023-01-19T01:58:06.074Z,99966.81
2023-01-19T02:00:52.880Z,99952.41
2023-01-19T02:03:22.042Z,99955.13
2023-01-19T02:05:49.216Z,99957.53
2023-01-19T02:08:41.598Z,99946.66
2023-01-19T02:11:27.512Z,99942.03
2023-01-19T02:13:54.329Z,99950.69
2023-01-19T02:16:20.991Z,99936.00
2023-01-19T02:18:47.808Z,99949.28
2023-01-19T02:21:23.415Z,99939.22
2023-01-19T02:23:55.723Z,99926.94
2023-01-19T02:26:34.405Z,99923.94
2023-01-19T02:29:04.297Z,99923.63
2023-01-19T02:31:33.662Z,99926.09
2023-01-19T02:34:01.933Z,99924.97
2023-01-19T02:36:42.966Z,99939.06
2023-01-19T02:39:11.217Z,99924.38
2023-01-19T02:41:52.726Z,99932.22
2023-01-19T02:44:21.126Z,99933.03
2023-01-19T02:46:47.791Z,99938.47
2023-01-19T02:49:14.688Z,99933.03
2023-01-19T02:51:44.085Z,99942.31
2023-01-19T02:54:32.191Z,99931.44
2023-01-19T02:57:24.503Z,99938.47
2023-01-19T02:59:57.135Z,99929.00
2023-01-19T03:02:34.449Z,99936.88
2023-01-19T03:05:23.752Z,99927.09
2023-01-19T03:08:15.989Z,99927.09
2023-01-19T03:10:51.507Z,99929.81
2023-01-19T03:13:39.443Z,99923.56
2023-01-19T03:16:23.061Z,99929.81
2023-01-19T03:19:12.697Z,99935.56
2023-01-19T03:21:43.558Z,99921.16
2023-01-19T03:24:12.441Z,99927.41
2023-01-19T03:26:44.159Z,99925.47
2023-01-19T03:29:14.112Z,99920.34
2023-01-19T03:31:44.660Z,99923.88
2023-01-19T03:34:15.154Z,99920.34
2023-01-19T03:36:51.804Z,99920.34
2023-01-19T03:39:22.589Z,99916.53
2023-01-19T03:41:54.156Z,99913.50
2023-01-19T03:44:23.745Z,99914.31
2023-01-19T03:46:51.061Z,99914.00
2023-01-19T03:49:18.003Z,99921.06
2023-01-19T03:51:44.942Z,99908.28
2023-01-19T03:54:12.004Z,99914.22
2023-01-19T03:56:38.880Z,99918.56
2023-01-19T03:59:08.400Z,99918.56
2023-01-19T04:01:35.125Z,99913.91
2023-01-19T04:04:01.867Z,99908.47
2023-01-19T04:06:28.528Z,99912.31
2023-01-19T04:08:55.180Z,99913.13
2023-01-19T04:11:21.863Z,99906.88
2023-01-19T04:13:48.492Z,99905.25
2023-01-19T04:16:20.025Z,99889.75
2023-01-19T04:18:48.418Z,99895.50
2023-01-19T04:21:15.438Z,99903.66
2023-01-19T04:23:44.406Z,99900.13
2023-01-19T04:26:11.084Z,99898.78
2023-01-19T04:28:37.934Z,99913.50
2023-01-19T04:31:06.887Z,99909.44
2023-01-19T04:33:34.491Z,99902.69
2023-01-19T04:36:01.728Z,99901.38
2023-01-19T04:38:28.468Z,99900.06
2023-01-19T04:40:55.725Z,99914.22
2023-01-19T04:43:23.480Z,99908.28
2023-01-19T04:45:50.519Z,99896.88
2023-01-19T04:48:18.590Z,99901.53
2023-01-19T04:50:45.714Z,99892.06
2023-01-19T04:53:13.816Z,99895.84
2023-01-19T04:55:40.798Z,99898.06
2023-01-19T04:58:07.485Z,99900.28
2023-01-19T05:00:34.160Z,99897.84
2023-01-19T05:03:01.834Z,99906.31
2023-01-19T05:05:28.833Z,99896.00
2023-01-19T05:07:55.687Z,99900.63
2023-01-19T05:10:22.385Z,99887.63
2023-01-19T05:12:49.579Z,99891.16
2023-01-19T05:15:16.348Z,99884.09
2023-01-19T05:17:43.118Z,99888.75
2023-01-19T05:20:13.355Z,99890.94
2023-01-19T05:22:41.671Z,99885.28
2023-01-19T05:25:08.825Z,99883.66
2023-01-19T05:27:36.665Z,99891.31
2023-01-19T05:30:05.068Z,99877.22
2023-01-19T05:32:31.699Z,99890.25
2023-01-19T05:34:58.379Z,99894.09
2023-01-19T05:37:25.045Z,99889.44
2023-01-19T05:39:51.930Z,99887.03
2023-01-19T05:42:18.528Z,99885.41
2023-01-19T05:44:45.163Z,99894.69
2023-01-19T05:47:11.891Z,99901.50
2023-01-19T05:49:38.500Z,99899.88
2023-01-19T05:52:06.333Z,99899.38
2023-01-19T05:54:33.126Z,99902.91
2023-01-19T05:56:59.832Z,99901.28
2023-01-19T05:59:26.513Z,99904.00
2023-01-19T06:01:53.896Z,99910.53
2023-01-19T06:04:21.278Z,99915.16
2023-01-19T06:06:49.134Z,99916.78
2023-01-19T06:09:17.312Z,99912.16
2023-01-19T06:11:45.219Z,99921.38
2023-01-19T06:14:12.167Z,99913.53
2023-01-19T06:16:39.132Z,99903.47
2023-01-19T06:19:05.832Z,99908.91
2023-01-19T06:21:32.997Z,99908.34
2023-01-19T06:23:59.697Z,99916.69
2023-01-19T06:26:27.622Z,99918.03
2023-01-19T06:28:55.165Z,99919.06
2023-01-19T06:31:23.257Z,99926.34
2023-01-19T06:33:50.194Z,99921.13
2023-01-19T06:36:16.855Z,99930.31
2023-01-19T06:38:43.509Z,99934.09
2023-01-19T06:41:10.110Z,99932.38
2023-01-19T06:43:36.727Z,99926.66
2023-01-19T06:46:04.094Z,99933.44
2023-01-19T06:48:30.875Z,99939.38
2023-01-19T06:50:59.548Z,99939.88
2023-01-19T06:53:28.384Z,99943.09
2023-01-19T06:56:02.070Z,99942.03
2023-01-19T06:58:30.778Z,99942.53
2023-01-19T07:01:03.375Z,99949.59
2023-01-19T07:03:30.614Z,99956.66
2023-01-19T07:05:57.520Z,99949.59
2023-01-19T07:08:24.393Z,99944.97
2023-01-19T07:11:26.742Z,99944.66
2023-01-19T07:13:40.242Z,99950.09
2023-01-19T07:16:09.405Z,99960.16
2023-01-19T07:18:37.749Z,99955.53
2023-01-19T07:21:05.780Z,99955.53
2023-01-19T07:23:32.868Z,99958.25
2023-01-19T07:26:03.826Z,99963.72
2023-01-19T07:28:31.734Z,99965.63
2023-01-19T07:30:58.776Z,99963.44
2023-01-19T07:33:26.281Z,99964.22
2023-01-19T07:35:53.288Z,99968.56
2023-01-19T07:38:20.455Z,99974.81
2023-01-19T07:40:47.207Z,99974.50
2023-01-19T07:43:15.016Z,99980.78
2023-01-19T07:45:42.043Z,99997.09
2023-01-19T07:48:09.072Z,99994.09
2023-01-19T07:50:35.714Z,100000.63
2023-01-19T07:53:08.387Z,99994.09
2023-01-19T07:55:35.829Z,99990.25
2023-01-19T07:58:07.277Z,99998.41
2023-01-19T08:00:38.204Z,100001.13
2023-01-19T08:03:05.530Z,100001.94
2023-01-19T08:05:33.305Z,100002.78
2023-01-19T08:08:00.641Z,99998.13
2023-01-19T08:10:28.720Z,100009.81
2023-01-19T08:12:57.031Z,100001.66
2023-01-19T08:15:24.826Z,100007.09
2023-01-19T08:18:01.935Z,100009.81
2023-01-19T08:20:29.648Z,100014.47
2023-01-19T08:23:05.612Z,100008.72
2023-01-19T08:25:38.045Z,100015.47
2023-01-19T08:28:06.272Z,100016.31
2023-01-19T08:30:33.655Z,100014.38
2023-01-19T08:33:08.401Z,100029.31
2023-01-19T08:35:37.923Z,100035.28
2023-01-19T08:38:06.095Z,100036.09
2023-01-19T08:40:36.028Z,100038.50
2023-01-19T08:43:14.830Z,100043.94
2023-01-19T08:45:49.926Z,100048.00
2023-01-19T08:48:18.743Z,100046.59
2023-01-19T08:50:47.452Z,100049.03
2023-01-19T08:53:15.162Z,100047.13
2023-01-19T08:55:42.347Z,100051.97
2023-01-19T08:58:09.853Z,100059.03
2023-01-19T09:00:38.212Z,100057.94
2023-01-19T09:03:07.284Z,100059.53
2023-01-19T09:05:37.402Z,100066.63
2023-01-19T09:08:06.272Z,100060.09
2023-01-19T09:10:36.205Z,100054.34
2023-01-19T09:13:08.370Z,100056.75
2023-01-19T09:15:37.845Z,100056.16
2023-01-19T09:18:07.101Z,100063.25
2023-01-19T09:20:36.142Z,100071.91
2023-01-19T09:23:03.004Z,100073.56
2023-01-19T09:25:29.747Z,100072.97
2023-01-19T09:28:02.845Z,100073.47
2023-01-19T09:30:29.794Z,100073.97
2023-01-19T09:32:58.047Z,100075.63
2023-01-19T09:35:26.017Z,100089.72
2023-01-19T09:37:52.788Z,100085.91
2023-01-19T09:40:23.489Z,100089.72
2023-01-19T09:43:05.149Z,100090.00
2023-01-19T09:45:39.855Z,100086.50
2023-01-19T09:48:28.937Z,100092.72
2023-01-19T09:50:59.558Z,100103.34
2023-01-19T09:53:45.033Z,100105.75
2023-01-19T09:56:15.293Z,100106.81
2023-01-19T09:58:42.488Z,100109.47
2023-01-19T10:01:23.172Z,100111.53
2023-01-19T10:03:54.934Z,100107.63
2023-01-19T10:06:23.241Z,100113.50
2023-01-19T10:09:09.810Z,100128.38
2023-01-19T10:11:52.099Z,100135.06
2023-01-19T10:14:43.370Z,100139.03
2023-01-19T10:17:38.067Z,100142.28
2023-01-19T10:20:13.109Z,100141.66
2023-01-19T10:22:43.438Z,100146.34
2023-01-19T10:25:19.426Z,100149.84
2023-01-19T10:27:46.751Z,100151.78
2023-01-19T10:30:26.282Z,100159.66
2023-01-19T10:32:53.423Z,100151.47
2023-01-19T10:35:25.071Z,100168.34
2023-01-19T10:37:56.657Z,100158.25
2023-01-19T10:40:37.538Z,100165.53
2023-01-19T10:43:38.345Z,100161.34
2023-01-19T10:46:28.175Z,100170.66
2023-01-19T10:48:56.020Z,100170.50
2023-01-19T10:51:23.389Z,100177.69
2023-01-19T10:53:59.408Z,100181.88
2023-01-19T10:56:31.757Z,100182.00
2023-01-19T10:59:04.020Z,100193.63
2023-01-19T11:01:36.011Z,100193.03
2023-01-19T11:04:28.740Z,100195.94
2023-01-19T11:07:19.120Z,100198.19
2023-01-19T11:09:47.098Z,100200.50
2023-01-19T11:12:22.948Z,100207.13
2023-01-19T11:14:51.860Z,100204.50
2023-01-19T11:17:26.265Z,100215.00
2023-01-19T11:19:56.319Z,100212.56
2023-01-19T11:22:27.945Z,100212.88
2023-01-19T11:24:58.988Z,100220.47
2023-01-19T11:27:26.244Z,100220.13
2023-01-19T11:30:21.054Z,100220.66
2023-01-19T11:32:49.374Z,100221.19
2023-01-19T11:35:37.051Z,100230.16
2023-01-19T11:38:12.807Z,100218.66
2023-01-19T11:40:41.922Z,100214.81
2023-01-19T11:43:13.512Z,100223.50
2023-01-19T11:45:40.506Z,100222.91
2023-01-19T11:48:11.101Z,100228.59
2023-01-19T11:50:43.828Z,100230.19
2023-01-19T11:53:25.491Z,100229.59
2023-01-19T11:56:20.603Z,100230.09
2023-01-19T11:58:47.472Z,100232.56
2023-01-19T12:01:24.864Z,100234.69
2023-01-19T12:04:04.564Z,100241.16
2023-01-19T12:06:34.275Z,100240.56
2023-01-19T12:09:11.745Z,100236.09
2023-01-19T12:11:43.521Z,100229.53
2023-01-19T12:14:23.118Z,100231.69
2023-01-19T12:16:53.284Z,100236.53
2023-01-19T12:19:34.722Z,100233.22
2023-01-19T12:22:02.929Z,100234.22
2023-01-19T12:24:42.311Z,100234.44
2023-01-19T12:27:45.622Z,100228.66
2023-01-19T12:30:21.373Z,100235.94
2023-01-19T12:32:48.380Z,100242.44
2023-01-19T12:35:52.639Z,100248.09
2023-01-19T12:38:53.546Z,100250.53
2023-01-19T12:41:25.325Z,100256.19
2023-01-19T12:44:10.405Z,100259.44
2023-01-19T12:46:39.664Z,100268.63
2023-01-19T12:49:12.423Z,100265.00
2023-01-19T12:51:39.063Z,100261.84
2023-01-19T12:54:08.457Z,100268.34
2023-01-19T12:56:38.417Z,100265.31
2023-01-19T12:59:06.510Z,100257.31
2023-01-19T13:01:33.395Z,100255.91
2023-01-19T13:04:25.949Z,100253.88
2023-01-19T13:06:52.605Z,100261.47
2023-01-19T13:09:33.988Z,100264.09
2023-01-19T13:12:22.490Z,100250.91
2023-01-19T13:14:50.833Z,100263.38
2023-01-19T13:17:36.265Z,100268.22
2023-01-19T13:20:23.231Z,100264.25
2023-01-19T13:22:50.700Z,100264.47
2023-01-19T13:25:36.300Z,100269.50
2023-01-19T13:28:09.299Z,100265.88
2023-01-19T13:30:37.390Z,100264.94
2023-01-19T13:33:13.734Z,100258.25
2023-01-19T13:35:40.426Z,100258.13
2023-01-19T13:38:11.321Z,100254.78
2023-01-19T13:40:39.097Z,100261.75
2023-01-19T13:43:17.831Z,100267.63
2023-01-19T13:45:51.138Z,100271.81
2023-01-19T13:48:24.306Z,100264.50
2023-01-19T13:51:06.039Z,100277.13
2023-01-19T13:53:33.103Z,100269.00
2023-01-19T13:56:07.590Z,100279.19
2023-01-19T13:58:34.248Z,100278.13
2023-01-19T14:01:01.155Z,100277.69
2023-01-19T14:03:27.921Z,100285.16
2023-01-19T14:05:55.001Z,100283.59
2023-01-19T14:08:23.017Z,100287.81
2023-01-19T14:10:56.358Z,100278.16
2023-01-19T14:13:32.030Z,100280.28
2023-01-19T14:16:04.285Z,100290.09
2023-01-19T14:18:33.497Z,100284.81
2023-01-19T14:21:01.931Z,100285.00
2023-01-19T14:23:44.245Z,100290.03
2023-01-19T14:26:46.425Z,100291.81
2023-01-19T14:29:18.700Z,100295.06
2023-01-19T14:32:06.692Z,100298.78
2023-01-19T14:34:45.008Z,100302.16
2023-01-19T14:37:27.240Z,100295.69
2023-01-19T14:39:59.371Z,100302.41
2023-01-19T14:42:33.449Z,100301.25
2023-01-19T14:45:03.005Z,100314.53
2023-01-19T14:47:29.761Z,100316.53
2023-01-19T14:50:00.575Z,100317.41
2023-01-19T14:52:34.849Z,100332.97
2023-01-19T14:55:03.989Z,100342.41
2023-01-19T14:57:30.611Z,100347.69
2023-01-19T14:59:57.339Z,100350.53
2023-01-19T15:02:24.028Z,100346.81
2023-01-19T15:04:55.173Z,100364.66
2023-01-19T15:07:24.323Z,100369.94
2023-01-19T15:09:51.698Z,100364.25
2023-01-19T15:12:18.979Z,100371.16
2023-01-19T15:14:45.936Z,100378.88
2023-01-19T15:17:27.399Z,100376.44
2023-01-19T15:19:55.261Z,100378.66
2023-01-19T15:22:22.744Z,100385.88
2023-01-19T15:24:49.807Z,100370.88
2023-01-19T15:27:17.047Z,100385.66
2023-01-19T15:29:43.771Z,100385.97
2023-01-19T15:32:14.784Z,100397.53
2023-01-19T15:34:42.125Z,100391.56
2023-01-19T15:37:09.175Z,100407.44
2023-01-19T15:39:35.920Z,100402.59
2023-01-19T15:42:02.648Z,100418.19
2023-01-19T15:44:30.206Z,100423.97
2023-01-19T15:46:57.514Z,100421.03
2023-01-19T15:49:24.357Z,100431.16
2023-01-19T15:51:51.070Z,100434.19
2023-01-19T15:54:18.709Z,100432.38
2023-01-19T15:56:45.391Z,100430.72
2023-01-19T15:59:12.116Z,100423.44
2023-01-19T16:01:40.254Z,100434.69
2023-01-19T16:04:09.610Z,100430.94
2023-01-19T16:06:36.229Z,100439.44
2023-01-19T16:09:03.914Z,100443.09
2023-01-19T16:11:35.190Z,100446.94
2023-01-19T16:14:02.108Z,100454.63
2023-01-19T16:16:28.843Z,100459.88
2023-01-19T16:18:55.709Z,100465.66
2023-01-19T16:21:22.608Z,100470.09
2023-01-19T16:23:49.533Z,100475.66
2023-01-19T16:26:34.787Z,100486.16
2023-01-19T16:29:08.768Z,100479.66
2023-01-19T16:31:36.483Z,100467.72
2023-01-19T16:34:03.784Z,100466.69
2023-01-19T16:36:32.672Z,100479.00
2023-01-19T16:39:05.936Z,100481.00
2023-01-19T16:41:33.858Z,100493.34
2023-01-19T16:44:00.875Z,100497.81
2023-01-19T16:46:30.598Z,100518.34
2023-01-19T16:49:03.061Z,100512.34
2023-01-19T16:51:29.926Z,100523.56
2023-01-19T16:53:56.828Z,100533.16
2023-01-19T16:56:24.056Z,100532.16
2023-01-19T16:58:55.692Z,100529.25
2023-01-19T17:01:23.911Z,100528.19
2023-01-19T17:03:51.075Z,100520.91
2023-01-19T17:06:20.212Z,100513.59
2023-01-19T17:08:47.439Z,100515.50
2023-01-19T17:11:19.631Z,100524.28
2023-01-19T17:14:08.948Z,100539.03
2023-01-19T17:16:36.090Z,100545.91
2023-01-19T17:19:05.417Z,100558.22
2023-01-19T17:21:32.361Z,100561.56
2023-01-19T17:23:59.485Z,100574.16
2023-01-19T17:26:31.208Z,100577.44
2023-01-19T17:29:06.444Z,100585.72
2023-01-19T17:31:34.054Z,100574.28
2023-01-19T17:34:01.105Z,100569.69
2023-01-19T17:36:29.215Z,100575.44
2023-01-19T17:38:57.909Z,100571.38
2023-01-19T17:41:30.544Z,100585.31
2023-01-19T17:44:00.405Z,100582.03
2023-01-19T17:46:28.686Z,100580.44
2023-01-19T17:49:00.620Z,100595.97
2023-01-19T17:51:28.238Z,100608.28
2023-01-19T17:53:55.559Z,100614.56
2023-01-19T17:56:29.800Z,100630.13
2023-01-19T17:58:57.832Z,100630.41
2023-01-19T18:01:27.891Z,100623.59
2023-01-19T18:03:55.318Z,100619.84
2023-01-19T18:06:22.475Z,100613.63
2023-01-19T18:08:49.908Z,100611.47
2023-01-19T18:11:19.626Z,100628.13
2023-01-19T18:13:48.389Z,100626.47
2023-01-19T18:16:18.419Z,100627.06
2023-01-19T18:18:45.167Z,100635.53
2023-01-19T18:21:13.950Z,100633.69
2023-01-19T18:23:43.431Z,100644.59
2023-01-19T18:26:16.609Z,100645.16
2023-01-19T18:28:43.597Z,100651.44
2023-01-19T18:31:12.546Z,100648.97
2023-01-19T18:33:39.962Z,100651.19
2023-01-19T18:36:07.537Z,100650.66
2023-01-19T18:38:35.113Z,100660.22
2023-01-19T18:41:05.963Z,100670.06
2023-01-19T18:43:33.315Z,100668.19
2023-01-19T18:46:00.227Z,100664.38
2023-01-19T18:48:27.042Z,100655.16
2023-01-19T18:50:54.078Z,100652.47
2023-01-19T18:53:21.741Z,100654.69
2023-01-19T18:55:58.212Z,100656.84
2023-01-19T18:58:28.589Z,100660.69
2023-01-19T19:00:56.813Z,100672.41
2023-01-19T19:03:23.907Z,100673.22
2023-01-19T19:05:50.650Z,100684.13
2023-01-19T19:08:17.733Z,100677.06
2023-01-19T19:10:44.848Z,100686.31
2023-01-19T19:13:16.328Z,100689.34
2023-01-19T19:15:44.468Z,100692.63
2023-01-19T19:18:16.367Z,100692.09
2023-01-19T19:20:43.553Z,100685.03
2023-01-19T19:23:11.249Z,100682.06
2023-01-19T19:25:38.352Z,100688.06
2023-01-19T19:28:05.245Z,100687.53
2023-01-19T19:30:34.369Z,100687.84
2023-01-19T19:33:01.626Z,100688.91
2023-01-19T19:35:28.594Z,100700.91
2023-01-19T19:37:57.652Z,100703.63
2023-01-19T19:40:26.618Z,100701.72
2023-01-19T19:42:54.035Z,100703.91
2023-01-19T19:45:20.894Z,100714.00
2023-01-19T19:47:47.778Z,100713.47
2023-01-19T19:50:14.888Z,100705.59
2023-01-19T19:52:42.266Z,100702.31
2023-01-19T19:55:10.649Z,100702.59
2023-01-19T19:57:37.676Z,100701.78
2023-01-19T20:00:05.312Z,100705.84
2023-01-19T20:02:32.330Z,100702.88
2023-01-19T20:04:59.084Z,100709.09
2023-01-19T20:07:25.976Z,100711.03
2023-01-19T20:09:55.060Z,100710.47
2023-01-19T20:12:21.987Z,100719.47
2023-01-19T20:14:48.951Z,100721.38
2023-01-19T20:17:15.772Z,100725.22
2023-01-19T20:19:44.153Z,100721.94
2023-01-19T20:22:10.797Z,100727.97
2023-01-19T20:24:37.601Z,100723.06
2023-01-19T20:27:04.430Z,100713.81
2023-01-19T20:29:31.102Z,100722.53
2023-01-19T20:31:58.003Z,100740.00
2023-01-19T20:34:33.024Z,100736.75
2023-01-19T20:37:01.810Z,100744.91
2023-01-19T20:39:33.217Z,100754.16
2023-01-19T20:42:00.582Z,100759.06
2023-01-19T20:44:27.478Z,100752.00
2023-01-19T20:46:56.414Z,100755.78
2023-01-19T20:49:23.520Z,100755.25
2023-01-19T20:51:52.073Z,100753.66
2023-01-19T20:54:22.812Z,100760.47
2023-01-19T20:56:50.611Z,100765.09
2023-01-19T20:59:17.641Z,100763.44
2023-01-19T21:01:45.038Z,100750.91
2023-01-19T21:04:12.898Z,100753.94
2023-01-19T21:06:40.761Z,100762.38
2023-01-19T21:09:09.149Z,100764.53
2023-01-19T21:11:38.048Z,100768.38
2023-01-19T21:14:05.279Z,100776.81
2023-01-19T21:16:34.172Z,100772.72
2023-01-19T21:19:01.059Z,100779.28
2023-01-19T21:21:31.247Z,100786.88
2023-01-19T21:24:00.380Z,100798.88
2023-01-19T21:26:30.053Z,100793.69
2023-01-19T21:28:58.241Z,100798.59
2023-01-19T21:31:27.565Z,100793.72
2023-01-19T21:33:55.046Z,100805.97
2023-01-19T21:36:22.554Z,100805.44
2023-01-19T21:38:51.409Z,100808.69
2023-01-19T21:41:19.685Z,100807.88
2023-01-19T21:43:46.606Z,100811.97
2023-01-19T21:46:18.365Z,100813.06
2023-01-19T21:48:45.980Z,100812.78
2023-01-19T21:51:14.275Z,100813.88
2023-01-19T21:53:41.136Z,100814.69
2023-01-19T21:56:09.748Z,100822.31
2023-01-19T21:58:37.054Z,100820.69
2023-01-19T22:01:07.012Z,100826.66
2023-01-19T22:03:33.971Z,100832.09
2023-01-19T22:06:08.606Z,100834.28
2023-01-19T22:08:36.990Z,100836.47
2023-01-19T22:11:05.771Z,100833.22
2023-01-19T22:13:33.952Z,100831.56
2023-01-19T22:16:02.910Z,100833.75
2023-01-19T22:18:29.760Z,100838.91
2023-01-19T22:20:56.938Z,100834.53
2023-01-19T22:23:23.806Z,100842.69
2023-01-19T22:25:50.520Z,100850.06
2023-01-19T22:28:17.355Z,100843.81
2023-01-19T22:30:44.148Z,100847.88
2023-01-19T22:33:11.242Z,100850.84
2023-01-19T22:35:38.316Z,100841.34
2023-01-19T22:38:05.228Z,100838.91
2023-01-19T22:40:32.227Z,100841.88
2023-01-19T22:42:59.058Z,100844.06
2023-01-19T22:45:27.790Z,100855.75
2023-01-19T22:47:54.814Z,100854.94
2023-01-19T22:50:21.612Z,100857.66
2023-01-19T22:52:55.296Z,100866.34
2023-01-19T22:55:22.080Z,100860.38
2023-01-19T22:57:49.276Z,100868.28
2023-01-19T23:00:16.621Z,100869.34
2023-01-19T23:02:43.441Z,100879.41
2023-01-19T23:05:11.130Z,100875.84
2023-01-19T23:07:38.057Z,100869.63
2023-01-19T23:10:05.124Z,100880.50
2023-01-19T23:12:31.761Z,100886.72
2023-01-19T23:14:58.624Z,100894.09
2023-01-19T23:17:25.249Z,100891.38
2023-01-19T23:19:51.866Z,100887.56
2023-01-19T23:22:18.657Z,100895.19
2023-01-19T23:24:45.342Z,100901.16
2023-01-19T23:27:12.063Z,100896.53
2023-01-19T23:29:38.739Z,100905.53
2023-01-19T23:32:05.359Z,100908.78
2023-01-19T23:34:32.000Z,100909.31
2023-01-19T23:36:58.716Z,100915.88
2023-01-19T23:39:26.461Z,100915.06
2023-01-19T23:41:53.109Z,100915.59
2023-01-19T23:44:19.941Z,100916.72
2023-01-19T23:46:47.031Z,100911.00
2023-01-19T23:49:14.155Z,100919.44
2023-01-19T23:51:41.485Z,100927.84
2023-01-19T23:54:09.264Z,100930.03
2023-01-19T23:56:37.438Z,100918.09
2023-01-19T23:59:07.491Z,100922.44
